Time;durP1;ratioP1;P1;durP2;ratioP2;P2;SDS_P1;SDS_P2;PMS_P1;PMS_P2;Temp;Humidity;BMP_temperature;BMP_pressure;BME280_temperature;BME280_humidity;BME280_pressure;Samples;Min_cycle;Max_cycle;Signal;HPM_P1;HPM_P2
2022/07/27 08:32:00;;;;;;;3.45;2.28;;;;;;;21.71;62.46;98963.88;5171455;27;20139;-79
2022/07/27 08:34:26;;;;;;;4.10;2.05;;;;;;;21.91;60.02;98957.66;5166984;27;20050;-78
2022/07/27 08:36:53;;;;;;;5.70;2.15;;;;;;;22.03;59.33;98973.25;5172022;27;20049;-78
2022/07/27 08:39:19;;;;;;;2.67;2.10;;;;;;;22.37;59.78;98982.13;5166901;27;20409;-79
2022/07/27 08:41:46;;;;;;;4.32;2.22;;;;;;;22.53;58.93;98971.97;5164696;27;20038;-78
2022/07/27 08:44:14;;;;;;;3.85;1.98;;;;;;;22.64;56.68;98978.38;5171044;27;20054;-79
2022/07/27 08:46:44;;;;;;;3.28;2.17;;;;;;;22.27;58.32;98977.31;5169668;27;20046;-78
2022/07/27 08:49:13;;;;;;;4.07;2.15;;;;;;;22.43;57.17;98980.19;5171612;27;20054;-78
2022/07/27 08:51:39;;;;;;;3.25;1.80;;;;;;;22.18;58.51;98983.63;5172257;27;20400;-79
2022/07/27 08:54:07;;;;;;;4.43;2.20;;;;;;;21.88;60.03;98969.25;5170970;27;20580;-79
2022/07/27 08:56:34;;;;;;;2.92;2.65;;;;;;;21.64;62.33;98981.78;5165400;27;20042;-78
2022/07/27 08:59:00;;;;;;;6.03;2.38;;;;;;;21.69;63.45;98982.69;5162132;27;20069;-78
2022/07/27 09:01:27;;;;;;;2.13;1.92;;;;;;;21.69;62.92;98966.06;5167949;27;20054;-79
2022/07/27 09:03:54;;;;;;;11.43;1.98;;;;;;;21.65;62.49;98964.06;5167887;27;20039;-79
2022/07/27 09:06:41;;;;;;;8.82;2.22;;;;;;;21.59;62.96;98987.25;5171387;27;20054;-79
2022/07/27 09:09:08;;;;;;;4.90;2.33;;;;;;;21.57;62.91;98970.91;5171775;27;20098;-78
2022/07/27 09:11:36;;;;;;;6.28;2.17;;;;;;;22.05;62.21;98973.81;5171206;27;20106;-79
2022/07/27 09:14:05;;;;;;;5.07;2.35;;;;;;;22.00;61.00;98979.34;5150626;27;20138;-78
2022/07/27 09:16:33;;;;;;;4.30;2.10;;;;;;;21.86;61.06;98960.41;5150499;27;20078;-78
2022/07/27 09:19:03;;;;;;;6.20;2.05;;;;;;;22.44;60.38;98979.94;5161794;27;20073;-79
2022/07/27 09:21:30;;;;;;;;;;;;;;;22.64;58.30;98981.16;5171357;27;20527;-79
2022/07/27 09:24:06;;;;;;;3.58;2.17;;;;;;;22.69;58.65;98975.66;5168802;27;19919;-78
2022/07/27 09:26:34;;;;;;;8.77;2.28;;;;;;;22.60;58.56;98982.81;5170714;27;20057;-78
2022/07/27 09:29:02;;;;;;;4.68;2.00;;;;;;;22.44;58.07;98951.41;5171251;27;20670;-77
2022/07/27 09:31:30;;;;;;;3.67;2.05;;;;;;;22.42;57.06;98948.91;5170137;27;20077;-78
2022/07/27 09:33:58;;;;;;;2.55;1.67;;;;;;;22.81;56.89;98975.44;5170251;27;20054;-78
2022/07/27 09:36:27;;;;;;;6.78;2.35;;;;;;;23.09;56.53;98954.75;5163837;27;20047;-78
2022/07/27 09:38:55;;;;;;;2.83;2.05;;;;;;;22.92;55.88;98965.22;5150564;27;20096;-78
2022/07/27 09:41:23;;;;;;;11.38;2.38;;;;;;;22.93;55.30;98969.66;5156765;27;20046;-78
2022/07/27 09:43:52;;;;;;;5.25;2.20;;;;;;;22.93;55.25;98945.56;5148038;27;20058;-78
2022/07/27 09:46:29;;;;;;;4.03;1.80;;;;;;;23.25;54.55;98954.84;5141932;27;20050;-78
2022/07/27 09:48:56;;;;;;;7.65;2.20;;;;;;;23.44;54.34;98953.22;5140252;27;20051;-78
2022/07/27 09:51:24;;;;;;;3.17;1.67;;;;;;;23.52;53.11;98960.16;5142779;27;20075;-79
2022/07/27 09:53:51;;;;;;;4.22;1.83;;;;;;;23.36;53.62;98950.97;5148097;27;20054;-78
2022/07/27 09:56:24;;;;;;;2.53;1.75;;;;;;;23.55;52.11;98947.69;5141105;27;20107;-78
2022/07/27 09:58:54;;;;;;;3.83;1.75;;;;;;;23.91;51.66;98942.13;5142095;27;20046;-78
2022/07/27 10:01:23;;;;;;;3.85;1.88;;;;;;;24.13;50.07;98947.41;5155989;27;20043;-78
2022/07/27 10:03:51;;;;;;;1.95;1.67;;;;;;;24.08;50.60;98959.34;5154363;27;20050;-78
2022/07/27 10:06:18;;;;;;;3.15;1.70;;;;;;;23.91;50.95;98967.13;5147601;27;20055;-78
2022/07/27 10:08:47;;;;;;;2.15;1.80;;;;;;;23.63;51.09;98963.75;5156866;27;20412;-78
2022/07/27 10:11:15;;;;;;;3.75;2.22;;;;;;;23.49;50.95;98957.94;5137226;27;20393;-77
2022/07/27 10:13:42;;;;;;;2.50;1.60;;;;;;;23.40;50.76;98949.31;5135505;27;20050;-78
2022/07/27 10:16:13;;;;;;;2.33;1.70;;;;;;;23.71;48.92;98965.16;5138402;27;20054;-79
2022/07/27 10:18:47;;;;;;;4.60;1.95;;;;;;;23.93;48.28;98965.75;5135987;27;20047;-78
2022/07/27 10:21:14;;;;;;;2.08;1.27;;;;;;;23.96;48.16;98956.84;5145091;27;20050;-78
2022/07/27 10:23:53;;;;;;;2.90;1.60;;;;;;;23.98;47.56;98937.16;5155817;27;20047;-78
2022/07/27 10:26:26;;;;;;;2.22;1.70;;;;;;;23.81;48.79;98932.69;5140093;27;20047;-78
2022/07/27 10:28:55;;;;;;;2.20;1.70;;;;;;;24.33;47.56;98946.56;5135861;27;20043;-78
2022/07/27 10:31:25;;;;;;;1.75;1.45;;;;;;;24.66;47.15;98944.25;5154019;27;20046;-78
2022/07/27 10:33:52;;;;;;;;;;;;;;;24.95;47.06;98961.09;5144987;27;20055;-78
2022/07/27 10:36:46;;;;;;;5.78;1.60;;;;;;;24.71;46.48;98958.16;5146767;27;19919;-78
2022/07/27 10:39:28;;;;;;;1.65;1.40;;;;;;;24.52;46.02;98938.44;5150419;27;20050;-78
2022/07/27 10:42:26;;;;;;;6.25;1.67;;;;;;;24.43;46.63;98967.91;5156750;27;20047;-78
2022/07/27 10:44:56;;;;;;;1.85;1.38;;;;;;;24.54;47.18;98975.13;5153622;27;20047;-78
2022/07/27 10:47:36;;;;;;;2.03;1.20;;;;;;;24.26;47.00;98979.34;5135159;27;20406;-78
2022/07/27 10:50:23;;;;;;;;;;;;;;;23.79;46.23;98968.22;5137337;27;20485;-78
2022/07/27 10:52:51;;;;;;;2.22;1.10;;;;;;;24.37;44.60;98956.81;5158185;27;19919;-78
2022/07/27 10:55:41;;;;;;;4.20;1.50;;;;;;;25.25;44.43;98956.50;5141942;27;20042;-78
2022/07/27 10:58:41;;;;;;;2.10;1.33;;;;;;;25.73;42.70;98955.91;5152108;27;20062;-79
2022/07/27 11:01:07;;;;;;;;;;;;;;;26.06;40.29;98956.25;5155363;27;20043;-78
2022/07/27 11:03:38;;;;;;;2.55;1.50;;;;;;;26.19;40.61;98927.69;5154684;27;20664;-79
2022/07/27 11:06:09;;;;;;;9.02;1.35;;;;;;;26.70;39.81;98953.41;5148576;27;20051;-79
2022/07/27 11:08:38;;;;;;;4.13;1.65;;;;;;;25.97;41.71;98939.31;5134352;27;20058;-79
2022/07/27 11:11:06;;;;;;;4.57;1.50;;;;;;;25.70;41.11;98946.22;5135063;27;20042;-78
2022/07/27 11:13:35;;;;;;;7.20;2.65;;;;;;;25.14;41.72;98927.09;5145420;27;20077;-79
2022/07/27 11:16:04;;;;;;;3.33;1.40;;;;;;;25.13;42.89;98944.88;5151159;27;20047;-78
2022/07/27 11:18:32;;;;;;;2.72;1.38;;;;;;;24.71;41.67;98942.28;5146714;27;20049;-78
2022/07/27 11:21:18;;;;;;;3.28;1.20;;;;;;;24.43;42.30;98942.91;5154941;27;20520;-78
2022/07/27 11:23:47;;;;;;;1.58;1.30;;;;;;;24.15;44.63;98931.31;5136747;27;20046;-78
2022/07/27 11:26:14;;;;;;;3.25;1.10;;;;;;;24.32;45.47;98958.78;5133539;27;20469;-78
2022/07/27 11:28:41;;;;;;;2.25;1.23;;;;;;;24.33;44.50;98941.00;5146876;27;20485;-78
2022/07/27 11:31:09;;;;;;;1.05;0.90;;;;;;;24.61;44.41;98944.28;5153312;27;20043;-79
2022/07/27 11:33:36;;;;;;;3.97;1.35;;;;;;;24.92;43.18;98925.53;5133705;27;20082;-78
2022/07/27 11:36:06;;;;;;;2.53;1.35;;;;;;;25.59;41.51;98933.50;5134999;27;20055;-78
2022/07/27 11:38:46;;;;;;;2.38;1.10;;;;;;;26.24;40.78;98940.75;5139849;27;20114;-78
2022/07/27 11:41:21;;;;;;;2.90;1.27;;;;;;;26.81;39.97;98930.69;5153015;27;20053;-78
2022/07/27 11:43:48;;;;;;;1.95;1.17;;;;;;;27.48;38.65;98931.75;5154391;27;20057;-78
2022/07/27 11:46:19;;;;;;;1.40;1.10;;;;;;;27.49;36.95;98917.47;5145754;27;20047;-78
2022/07/27 11:48:51;;;;;;;2.17;1.20;;;;;;;26.94;37.74;98917.94;5154996;27;20107;-78
2022/07/27 11:51:18;;;;;;;3.17;1.10;;;;;;;26.18;38.92;98920.50;5140100;27;20043;-78
2022/07/27 11:53:46;;;;;;;2.42;0.93;;;;;;;25.86;39.45;98921.03;5133240;27;20471;-77
2022/07/27 11:56:21;;;;;;;1.80;1.00;;;;;;;25.03;41.37;98923.53;5133884;27;20047;-78
2022/07/27 11:58:58;;;;;;;3.88;1.08;;;;;;;25.11;41.93;98930.44;5134168;27;20574;-78
2022/07/27 12:01:33;;;;;;;2.72;1.08;;;;;;;24.78;41.85;98905.00;5135210;27;20046;-78
2022/07/27 12:04:12;;;;;;;1.52;1.00;;;;;;;24.96;42.00;98907.16;5147061;27;20560;-77
2022/07/27 12:06:41;;;;;;;3.03;1.15;;;;;;;25.26;42.20;98922.00;5146420;27;20122;-78
2022/07/27 12:09:13;;;;;;;4.20;0.90;;;;;;;25.14;42.33;98907.59;5146179;27;20043;-78
2022/07/27 12:11:52;;;;;;;1.10;0.95;;;;;;;25.50;40.98;98899.06;5146713;27;20046;-78
2022/07/27 12:14:20;;;;;;;5.28;2.03;;;;;;;26.27;38.96;98909.50;5141760;27;20082;-79
2022/07/27 12:16:46;;;;;;;2.35;1.25;;;;;;;26.49;38.23;98895.88;5132936;27;20055;-78
2022/07/27 12:19:22;;;;;;;1.17;0.90;;;;;;;26.52;37.52;98921.53;5131910;27;20059;-78
2022/07/27 12:21:53;;;;;;;2.40;1.08;;;;;;;25.89;37.57;98906.53;5142522;27;20625;-79
2022/07/27 12:24:31;;;;;;;1.58;1.25;;;;;;;26.00;38.24;98913.69;5153659;27;20043;-78
2022/07/27 12:27:06;;;;;;;3.35;1.10;;;;;;;25.90;38.91;98922.94;5153836;27;20046;-78
2022/07/27 12:29:33;;;;;;;3.60;0.90;;;;;;;26.00;38.47;98913.69;5138384;27;20051;-78
2022/07/27 12:32:03;;;;;;;3.78;1.10;;;;;;;25.95;39.01;98895.06;5154022;27;20054;-78
2022/07/27 12:34:34;;;;;;;2.42;0.90;;;;;;;26.57;38.52;98908.34;5149900;27;20590;-78
2022/07/27 12:37:01;;;;;;;2.00;1.00;;;;;;;26.34;38.10;98912.78;5138159;27;20053;-77
2022/07/27 12:39:31;;;;;;;1.17;1.08;;;;;;;26.48;38.32;98901.75;5151865;27;20131;-78
2022/07/27 12:42:03;;;;;;;;;;;;;;;26.80;37.29;98911.47;5154093;27;20049;-79
2022/07/27 12:44:35;;;;;;;4.38;1.17;;;;;;;26.87;35.59;98884.00;5133284;27;20293;-78
2022/07/27 12:49:44;;;;;;;4.30;0.95;;;;;;;27.66;35.17;98885.38;5132871;27;20049;-78
2022/07/27 12:52:11;;;;;;;1.85;0.90;;;;;;;27.90;35.19;98900.03;5146539;27;20379;-78
2022/07/27 12:54:39;;;;;;;4.18;1.08;;;;;;;27.65;35.76;98903.25;5149545;27;20054;-78
2022/07/27 12:57:05;;;;;;;4.53;1.10;;;;;;;26.54;36.89;98891.38;5149219;27;20055;-78
2022/07/27 12:59:32;;;;;;;4.88;1.02;;;;;;;25.71;38.77;98908.06;5153763;27;20494;-78
2022/07/27 13:01:59;;;;;;;1.08;0.98;;;;;;;26.00;38.07;98910.06;5153746;27;20049;-78
2022/07/27 13:04:25;;;;;;;3.97;1.08;;;;;;;26.13;38.16;98887.09;5133020;27;20050;-78
2022/07/27 13:06:52;;;;;;;1.67;1.13;;;;;;;26.23;37.27;98897.31;5132725;27;20051;-79
2022/07/27 13:09:18;;;;;;;4.13;1.08;;;;;;;26.41;37.44;98899.34;5143482;27;20555;-79
2022/07/27 13:11:46;;;;;;;2.33;0.93;;;;;;;26.44;36.94;98890.38;5153562;27;20054;-80
2022/07/27 13:14:13;;;;;;;0.95;0.90;;;;;;;27.02;36.33;98882.97;5132323;27;20055;-78
2022/07/27 13:16:40;;;;;;;1.98;1.25;;;;;;;27.15;35.14;98901.75;5133630;27;20051;-78
2022/07/27 13:19:06;;;;;;;2.97;1.20;;;;;;;26.68;35.74;98889.56;5136611;27;20128;-78
2022/07/27 13:21:33;;;;;;;2.70;1.00;;;;;;;26.57;36.38;98900.00;5136828;27;20043;-78
2022/07/27 13:24:01;;;;;;;0.98;0.80;;;;;;;26.93;36.46;98891.19;5135842;27;20047;-78
2022/07/27 13:26:28;;;;;;;1.98;0.90;;;;;;;26.78;35.11;98869.06;5147769;27;20047;-78
2022/07/27 13:28:56;;;;;;;1.55;1.10;;;;;;;26.82;35.12;98896.06;5153700;27;20043;-78
2022/07/27 13:31:22;;;;;;;2.13;1.08;;;;;;;26.38;36.31;98876.81;5155356;27;20055;-78
2022/07/27 13:33:49;;;;;;;0.88;0.80;;;;;;;25.39;38.86;98879.66;5155098;27;20046;-78
2022/07/27 13:36:15;;;;;;;2.42;1.25;;;;;;;25.72;38.83;98899.44;5156009;27;20043;-78
2022/07/27 13:38:42;;;;;;;1.38;0.90;;;;;;;26.26;38.48;98896.72;5153507;27;20049;-78
2022/07/27 13:41:09;;;;;;;1.42;0.70;;;;;;;26.22;38.30;98893.69;5149934;27;20059;-78
2022/07/27 13:43:36;;;;;;;1.13;1.02;;;;;;;26.55;36.67;98870.75;5143906;27;20043;-79
2022/07/27 13:46:07;;;;;;;2.38;0.95;;;;;;;26.30;36.32;98893.06;5133417;27;20051;-79
2022/07/27 13:48:33;;;;;;;6.18;2.10;;;;;;;26.50;36.75;98891.16;5150526;27;20477;-80
2022/07/27 13:51:00;;;;;;;2.10;1.10;;;;;;;26.57;37.45;98890.78;5155454;27;20050;-78
2022/07/27 13:53:26;;;;;;;1.65;1.00;;;;;;;27.23;36.52;98879.88;5154533;27;20051;-79
2022/07/27 13:55:55;;;;;;;2.47;1.00;;;;;;;26.71;36.58;98891.75;5155278;27;20047;-79
2022/07/27 13:58:22;;;;;;;1.55;0.90;;;;;;;26.76;36.24;98883.31;5146034;27;20050;-79
2022/07/27 14:00:50;;;;;;;5.30;1.00;;;;;;;27.28;35.87;98883.44;5155140;27;20057;-80
2022/07/27 14:03:18;;;;;;;3.95;1.33;;;;;;;27.18;35.19;98864.06;5134014;27;20196;-79
2022/07/27 14:05:44;;;;;;;1.13;0.98;;;;;;;27.30;34.45;98881.16;5147226;27;20042;-78
2022/07/27 14:08:11;;;;;;;1.33;1.00;;;;;;;27.64;34.73;98862.50;5146021;27;20038;-78
2022/07/27 14:10:41;;;;;;;2.80;0.93;;;;;;;27.81;34.08;98868.34;5154738;27;20066;-79
2022/07/27 14:13:10;;;;;;;2.33;1.13;;;;;;;26.94;36.12;98872.50;5154119;27;20043;-78
2022/07/27 14:15:37;;;;;;;1.48;1.00;;;;;;;26.65;35.65;98876.19;5154806;27;20097;-79
2022/07/27 14:18:05;;;;;;;4.70;1.10;;;;;;;26.46;35.70;98882.53;5151382;27;20561;-78
2022/07/27 14:20:33;;;;;;;2.20;1.02;;;;;;;26.77;35.93;98876.63;5150575;27;20046;-79
2022/07/27 14:23:00;;;;;;;2.10;1.30;;;;;;;26.55;35.78;98857.63;5153171;27;20043;-78
2022/07/27 14:25:27;;;;;;;2.17;1.00;;;;;;;25.95;36.22;98844.09;5154925;27;20050;-78
2022/07/27 14:27:54;;;;;;;1.75;0.90;;;;;;;26.32;36.12;98850.97;5152936;27;20051;-79
2022/07/27 14:30:21;;;;;;;2.83;1.20;;;;;;;26.99;35.27;98856.53;5154198;27;20052;-79
2022/07/27 14:32:48;;;;;;;4.65;1.00;;;;;;;27.17;35.65;98857.66;5153819;27;20057;-78
2022/07/27 14:35:14;;;;;;;2.40;1.02;;;;;;;26.77;35.77;98873.84;5154145;27;20413;-78
2022/07/27 14:37:42;;;;;;;0.73;0.73;;;;;;;26.44;36.76;98856.94;5151176;27;20054;-79
2022/07/27 14:40:10;;;;;;;3.20;0.93;;;;;;;25.93;36.47;98857.47;5152911;27;20050;-78
2022/07/27 14:42:36;;;;;;;2.88;0.90;;;;;;;26.07;36.87;98877.97;5139875;27;20078;-78
2022/07/27 14:45:04;;;;;;;1.95;1.02;;;;;;;25.99;36.79;98850.75;5133363;27;20058;-78
2022/07/27 14:47:30;;;;;;;1.83;1.10;;;;;;;26.19;37.04;98860.03;5141229;27;20043;-79
2022/07/27 14:49:57;;;;;;;2.45;0.73;;;;;;;26.22;37.02;98843.53;5154044;27;20054;-78
2022/07/27 14:52:24;;;;;;;4.70;1.00;;;;;;;26.74;35.80;98868.00;5153426;27;20553;-78
2022/07/27 14:54:55;;;;;;;1.58;0.80;;;;;;;27.30;34.03;98847.69;5153285;27;20046;-79
2022/07/27 14:57:22;;;;;;;8.63;1.25;;;;;;;27.80;33.89;98835.97;5151954;27;20051;-79
2022/07/27 14:59:49;;;;;;;3.22;0.90;;;;;;;28.02;33.56;98859.66;5153581;27;20054;-79
2022/07/27 15:02:15;;;;;;;1.95;0.85;;;;;;;27.65;34.07;98847.41;5151068;27;20054;-78
2022/07/27 15:04:42;;;;;;;2.72;0.80;;;;;;;27.68;33.51;98833.66;5153616;27;20042;-79
2022/07/27 15:07:08;;;;;;;2.00;1.17;;;;;;;27.88;33.28;98849.25;5148105;27;20572;-78
2022/07/27 15:09:35;;;;;;;2.20;0.80;;;;;;;27.62;33.55;98856.41;5151857;27;20055;-78
2022/07/27 15:12:04;;;;;;;5.80;1.15;;;;;;;27.04;34.67;98855.63;5150309;27;20043;-78
2022/07/27 15:14:31;;;;;;;6.15;1.13;;;;;;;26.41;36.74;98846.38;5152816;27;20051;-80
2022/07/27 15:16:57;;;;;;;1.55;0.82;;;;;;;26.65;35.96;98865.88;5151904;27;20047;-78
2022/07/27 15:19:25;;;;;;;1.88;0.98;;;;;;;26.90;35.92;98854.69;5153087;27;20387;-78
2022/07/27 15:21:51;;;;;;;1.45;0.93;;;;;;;26.56;35.84;98836.19;5145094;27;20046;-79
2022/07/27 15:24:18;;;;;;;4.80;1.17;;;;;;;25.86;37.53;98849.47;5131519;27;20494;-79
2022/07/27 15:26:44;;;;;;;1.00;0.85;;;;;;;25.40;37.66;98864.63;5132305;27;20043;-78
2022/07/27 15:29:12;;;;;;;3.60;1.08;;;;;;;25.17;38.57;98849.47;5148740;27;20053;-78
2022/07/27 15:31:39;;;;;;;1.70;0.80;;;;;;;25.23;38.53;98876.13;5153023;27;20062;-78
2022/07/27 15:34:05;;;;;;;2.65;0.95;;;;;;;25.36;38.23;98868.28;5152474;27;20053;-78
2022/07/27 15:36:32;;;;;;;2.13;0.90;;;;;;;25.60;37.69;98882.28;5150433;27;20473;-78
2022/07/27 15:38:59;;;;;;;5.43;1.05;;;;;;;25.46;37.80;98859.84;5153145;27;20051;-79
2022/07/27 15:41:25;;;;;;;1.40;1.02;;;;;;;25.56;37.55;98861.72;5151303;27;20050;-78
2022/07/27 15:43:52;;;;;;;1.35;0.70;;;;;;;25.71;37.10;98847.66;5152276;27;20051;-77
2022/07/27 15:46:20;;;;;;;3.60;1.02;;;;;;;26.48;35.66;98866.38;5147610;27;20225;-78
2022/07/27 15:48:47;;;;;;;1.75;0.82;;;;;;;26.84;35.30;98840.00;5146475;27;20047;-78
2022/07/27 15:51:13;;;;;;;2.35;1.00;;;;;;;26.46;35.90;98856.63;5152808;27;20062;-77
2022/07/27 15:53:40;;;;;;;5.53;0.85;;;;;;;25.97;36.67;98830.72;5149715;27;20405;-77
2022/07/27 15:56:06;;;;;;;2.10;0.80;;;;;;;25.92;36.98;98850.25;5158370;27;20054;-79
2022/07/27 15:58:33;;;;;;;3.28;0.75;;;;;;;25.89;37.63;98860.00;5160355;27;20057;-79
2022/07/27 16:01:02;;;;;;;2.20;0.95;;;;;;;25.51;37.66;98831.16;5152889;27;20051;-79
2022/07/27 16:03:30;;;;;;;4.10;1.00;;;;;;;25.70;37.22;98825.66;5146200;27;20058;-79
2022/07/27 16:05:56;;;;;;;3.00;1.10;;;;;;;25.71;37.08;98832.91;5152583;27;20076;-79
2022/07/27 16:08:23;;;;;;;2.97;0.98;;;;;;;25.24;37.41;98821.31;5152648;27;20059;-79
2022/07/27 16:10:49;;;;;;;4.85;1.15;;;;;;;25.48;37.14;98832.56;5152378;27;20050;-80
2022/07/27 16:13:16;;;;;;;2.75;0.90;;;;;;;25.91;36.69;98823.50;5150178;27;20046;-79
2022/07/27 16:18:28;;;;;;;2.45;1.00;;;;;;;26.57;35.16;98833.09;5139939;27;20193;-79
2022/07/27 16:20:56;;;;;;;2.25;1.00;;;;;;;26.49;35.57;98808.66;5131221;27;20054;-79
2022/07/27 16:23:23;;;;;;;2.72;0.88;;;;;;;26.24;36.27;98835.72;5148034;27;20078;-79
2022/07/27 16:25:52;;;;;;;0.98;0.80;;;;;;;26.16;36.28;98813.25;5151804;27;20043;-79
2022/07/27 16:28:20;;;;;;;4.15;1.15;;;;;;;26.59;35.28;98824.44;5152035;27;20069;-79
2022/07/27 16:30:46;;;;;;;1.88;0.88;;;;;;;26.78;35.30;98832.84;5151950;27;20474;-79
2022/07/27 16:33:13;;;;;;;4.68;0.90;;;;;;;26.59;35.78;98824.44;5148775;27;20053;-80
2022/07/27 16:35:41;;;;;;;6.97;0.90;;;;;;;26.29;35.46;98813.38;5152023;27;20050;-79
2022/07/27 16:38:09;;;;;;;11.57;1.25;;;;;;;25.99;36.25;98806.22;5151214;27;20129;-79
2022/07/27 16:40:37;;;;;;;2.70;0.80;;;;;;;25.75;36.73;98822.84;5146397;27;20219;-79
2022/07/27 16:43:04;;;;;;;1.98;0.95;;;;;;;24.98;38.14;98801.22;5142456;27;20565;-78
2022/07/27 16:45:32;;;;;;;4.30;0.80;;;;;;;24.86;38.34;98830.19;5143943;27;20039;-79
2022/07/27 16:47:59;;;;;;;2.85;1.00;;;;;;;24.78;38.14;98828.03;5152165;27;20050;-79
2022/07/27 16:50:25;;;;;;;4.20;0.90;;;;;;;24.70;38.05;98820.28;5151973;27;20405;-79
2022/07/27 16:52:52;;;;;;;2.45;0.77;;;;;;;24.53;38.78;98818.66;5152529;27;20050;-79
2022/07/27 16:55:20;;;;;;;3.53;0.80;;;;;;;24.64;38.63;98832.56;5153631;27;20051;-79
2022/07/27 16:57:47;;;;;;;2.15;0.85;;;;;;;24.62;38.63;98821.72;5155376;27;20060;-78
2022/07/27 17:00:15;;;;;;;3.10;1.02;;;;;;;24.57;38.98;98802.28;5148992;27;20505;-78
2022/07/27 17:02:41;;;;;;;3.00;0.93;;;;;;;24.74;38.46;98824.97;5155013;27;20038;-78
2022/07/27 17:05:09;;;;;;;2.50;1.17;;;;;;;24.92;38.25;98828.22;5152630;27;20042;-78
2022/07/27 17:07:35;;;;;;;1.05;0.80;;;;;;;24.75;38.19;98825.84;5135084;27;20047;-79
2022/07/27 17:10:02;;;;;;;1.77;0.90;;;;;;;24.94;37.98;98828.75;5135117;27;20051;-79
2022/07/27 17:12:30;;;;;;;2.10;1.00;;;;;;;24.70;38.11;98825.84;5144010;27;20142;-78
2022/07/27 17:14:57;;;;;;;2.47;1.00;;;;;;;24.69;37.93;98822.25;5152491;27;20194;-78
2022/07/27 17:17:23;;;;;;;2.67;0.80;;;;;;;24.61;38.03;98827.56;5155222;27;20047;-79
2022/07/27 17:19:50;;;;;;;2.30;0.95;;;;;;;24.35;38.53;98808.22;5155677;27;20046;-79
2022/07/27 17:22:16;;;;;;;3.15;1.10;;;;;;;24.53;38.30;98820.63;5154736;27;20139;-78
2022/07/27 17:24:43;;;;;;;2.55;1.00;;;;;;;24.45;38.89;98827.63;5149676;27;20042;-78
2022/07/27 17:27:09;;;;;;;1.33;0.80;;;;;;;24.53;38.38;98829.78;5153336;27;20055;-78
2022/07/27 17:29:39;;;;;;;2.13;1.45;;;;;;;24.35;38.34;98822.09;5145641;27;20050;-78
2022/07/27 17:32:06;;;;;;;3.90;0.73;;;;;;;24.21;38.76;98828.25;5150373;27;20061;-79
2022/07/27 17:34:32;;;;;;;2.10;0.93;;;;;;;23.99;38.52;98794.47;5154767;27;20043;-78
2022/07/27 17:36:59;;;;;;;4.45;0.95;;;;;;;24.01;38.52;98795.00;5155761;27;20039;-79
2022/07/27 17:39:27;;;;;;;2.00;0.82;;;;;;;23.94;38.99;98823.06;5153894;27;20538;-79
2022/07/27 17:41:54;;;;;;;2.70;0.90;;;;;;;24.00;38.80;98819.16;5153929;27;20457;-79
2022/07/27 17:44:21;;;;;;;1.95;0.95;;;;;;;23.96;38.83;98809.72;5140391;27;20078;-79
2022/07/27 17:46:49;;;;;;;8.68;1.10;;;;;;;23.98;38.69;98818.63;5155029;27;20054;-79
2022/07/27 17:49:15;;;;;;;1.55;1.00;;;;;;;23.85;39.05;98835.84;5155499;27;20073;-79
2022/07/27 17:51:42;;;;;;;5.90;1.48;;;;;;;23.75;39.13;98824.75;5155260;27;20050;-79
2022/07/27 17:54:08;;;;;;;1.80;0.98;;;;;;;23.64;38.90;98818.38;5149117;27;20054;-78
2022/07/27 17:56:35;;;;;;;4.28;1.63;;;;;;;23.75;39.50;98827.50;5150001;27;20405;-79
2022/07/27 17:59:02;;;;;;;2.50;0.77;;;;;;;23.89;39.46;98827.78;5139480;27;20043;-79
2022/07/27 18:01:28;;;;;;;4.78;1.05;;;;;;;23.77;39.29;98847.47;5148933;27;20050;-79
2022/07/27 18:03:56;;;;;;;2.75;1.20;;;;;;;23.65;39.54;98833.91;5147603;27;20057;-79
2022/07/27 18:06:23;;;;;;;3.28;0.95;;;;;;;23.37;39.84;98819.50;5151954;27;21831;-82
2022/07/27 18:08:49;;;;;;;6.95;0.95;;;;;;;23.51;39.86;98841.97;5141685;27;20073;-79
2022/07/27 18:11:16;;;;;;;4.80;1.20;;;;;;;23.40;40.02;98830.03;5151051;27;20047;-79
2022/07/27 18:13:43;;;;;;;5.57;1.10;;;;;;;23.39;40.11;98844.19;5141822;27;20592;-80
2022/07/27 18:16:12;;;;;;;0.63;0.60;;;;;;;23.40;40.13;98840.31;5129266;27;20486;-79
2022/07/27 18:18:39;;;;;;;2.90;1.30;;;;;;;23.15;40.25;98812.28;5141142;27;20042;-79
2022/07/27 18:21:09;;;;;;;3.88;1.00;;;;;;;23.34;40.45;98845.03;5146077;27;20042;-79
2022/07/27 18:23:36;;;;;;;7.72;1.10;;;;;;;23.11;40.07;98838.91;5140532;27;20050;-80
2022/07/27 18:26:02;;;;;;;4.88;1.08;;;;;;;23.05;40.20;98842.75;5151412;27;20050;-80
2022/07/27 18:28:29;;;;;;;1.17;0.77;;;;;;;22.97;40.43;98841.34;5152341;27;20054;-79
2022/07/27 18:30:56;;;;;;;7.03;1.20;;;;;;;22.86;40.36;98831.34;5151856;27;20112;-79
2022/07/27 18:33:23;;;;;;;3.85;1.10;;;;;;;22.92;40.58;98846.88;5146714;27;20056;-79
2022/07/27 18:35:50;;;;;;;2.50;1.08;;;;;;;22.87;41.08;98843.25;5144363;27;20555;-79
2022/07/27 18:38:18;;;;;;;1.10;0.80;;;;;;;22.71;41.46;98823.81;5131106;27;20236;-79
2022/07/27 18:40:47;;;;;;;1.25;0.70;;;;;;;22.59;41.98;98829.59;5143765;27;20042;-79
2022/07/27 18:43:14;;;;;;;4.43;0.90;;;;;;;22.52;42.11;98845.66;5133313;27;20071;-79
2022/07/27 18:45:41;;;;;;;2.78;0.80;;;;;;;22.53;41.78;98854.78;5152230;27;20053;-80
2022/07/27 18:48:09;;;;;;;2.47;1.00;;;;;;;22.48;41.99;98861.16;5152622;27;20125;-79
2022/07/27 18:50:36;;;;;;;4.25;1.00;;;;;;;22.22;43.03;98838.00;5141405;27;20039;-79
2022/07/27 18:53:03;;;;;;;1.30;0.80;;;;;;;22.32;43.21;98857.47;5138007;27;20047;-79
2022/07/27 18:55:31;;;;;;;3.28;0.90;;;;;;;22.17;43.88;98849.06;5150582;27;20059;-79
2022/07/27 18:57:58;;;;;;;4.43;0.98;;;;;;;21.99;44.26;98851.16;5151304;27;20047;-79
2022/07/27 19:00:26;;;;;;;5.38;1.40;;;;;;;21.99;44.62;98870.53;5144376;27;20247;-79
2022/07/27 19:02:55;;;;;;;7.30;1.17;;;;;;;21.86;44.88;98871.00;5142865;27;20050;-79
2022/07/27 19:05:23;;;;;;;1.97;1.20;;;;;;;21.77;44.50;98869.84;5151082;27;20107;-79
2022/07/27 19:07:50;;;;;;;2.67;0.90;;;;;;;21.76;43.85;98874.53;5150910;27;20089;-79
2022/07/27 19:10:17;;;;;;;3.88;1.17;;;;;;;21.80;44.88;98880.38;5146491;27;20046;-80
2022/07/27 19:12:45;;;;;;;3.50;1.05;;;;;;;21.75;45.44;98886.69;5141499;27;20050;-80
2022/07/27 19:15:12;;;;;;;5.00;1.00;;;;;;;21.73;45.12;98888.91;5130041;27;20405;-79
2022/07/27 19:17:38;;;;;;;3.85;1.15;;;;;;;21.49;45.59;98877.34;5143911;27;20046;-80
2022/07/27 19:20:08;;;;;;;5.35;1.20;;;;;;;21.45;45.39;98895.56;5152963;27;20089;-79
2022/07/27 19:22:35;;;;;;;6.45;2.70;;;;;;;21.42;45.82;98890.56;5149534;27;20295;-79
2022/07/27 19:25:02;;;;;;;3.35;1.08;;;;;;;21.43;46.48;98906.88;5154983;27;20133;-79
2022/07/27 19:27:28;;;;;;;1.52;0.90;;;;;;;21.03;46.26;98873.06;5157415;27;20050;-79
2022/07/27 19:29:57;;;;;;;4.63;1.10;;;;;;;21.00;46.85;98884.63;5154803;27;20057;-80
2022/07/27 19:32:23;;;;;;;3.13;0.90;;;;;;;20.98;48.35;98903.38;5149790;27;20387;-80
2022/07/27 19:34:50;;;;;;;4.53;1.17;;;;;;;20.81;47.19;98900.72;5151019;27;20053;-79
2022/07/27 19:37:16;;;;;;;2.97;0.90;;;;;;;20.81;46.83;98883.31;5150344;27;20047;-79
2022/07/27 19:39:43;;;;;;;1.98;0.82;;;;;;;21.00;46.46;98905.88;5146067;27;20043;-79
2022/07/27 19:42:09;;;;;;;6.72;1.38;;;;;;;20.89;46.69;98891.13;5153013;27;20129;-79
2022/07/27 19:44:36;;;;;;;2.83;1.10;;;;;;;20.88;46.48;98906.06;5141896;27;20051;-79
2022/07/27 19:47:04;;;;;;;3.28;1.00;;;;;;;20.99;46.66;98921.66;5129485;27;20537;-79
2022/07/27 19:49:31;;;;;;;2.80;1.20;;;;;;;20.83;46.59;98900.47;5135358;27;20069;-79
2022/07/27 19:51:58;;;;;;;2.30;1.00;;;;;;;20.89;46.80;98904.13;5148700;27;20050;-79
2022/07/27 19:54:27;;;;;;;3.20;0.95;;;;;;;20.86;46.75;98898.00;5155092;27;20054;-79
2022/07/27 19:56:53;;;;;;;3.30;0.93;;;;;;;20.97;46.90;98929.38;5147223;27;20055;-79
2022/07/27 19:59:20;;;;;;;1.15;1.00;;;;;;;20.96;47.03;98921.34;5152890;27;20046;-80
2022/07/27 20:01:47;;;;;;;3.30;1.33;;;;;;;20.85;47.18;98921.22;5155933;27;20046;-79
2022/07/27 20:04:15;;;;;;;2.33;1.23;;;;;;;20.71;46.83;98903.34;5142370;27;20477;-79
2022/07/27 20:06:41;;;;;;;2.22;1.10;;;;;;;20.82;46.64;98929.16;5140541;27;20497;-79
2022/07/27 20:09:08;;;;;;;3.38;1.40;;;;;;;20.81;46.73;98917.28;5149387;27;20477;-79
2022/07/27 20:11:34;;;;;;;5.22;1.40;;;;;;;20.82;46.79;98904.31;5129088;27;20046;-79
2022/07/27 20:14:02;;;;;;;1.95;1.00;;;;;;;20.87;47.23;98932.00;5129283;27;20211;-79
2022/07/27 20:16:30;;;;;;;4.38;0.85;;;;;;;20.56;47.59;98892.91;5139961;27;20043;-79